| Date | Time | Temp. (oF) | Dew Point (oF) | Rel. Hum. (%) | Press. (in.) | Wind Dir. | Wind Speed (mph) | Hourly Rainfall (in.) |
|
|---|---|---|---|---|---|---|---|---|---|
| 1 | 07/04 | 00:00 | 67 | 59 | 78 | 30.05 | SW | 0 | 0.00 |
| 2 | 07/03 | 23:00 | 70 | 59 | 70 | 30.04 | SW | 0 | 0.00 |
| 3 | 07/03 | 22:00 | 73 | 60 | 64 | 30.03 | SW | 0 | 0.00 |
| 4 | 07/03 | 21:00 | 78 | 57 | 50 | 30.01 | WSW | 0 | 0.00 |
| 5 | 07/03 | 20:00 | 86 | 54 | 35 | 30.01 | WSW | 1 | 0.00 |
| 6 | 07/03 | 19:00 | 88 | 54 | 32 | 30.01 | NNW | 1 | 0.00 |
| 7 | 07/03 | 18:00 | 87 | 53 | 32 | 30.02 | WNW | 3 | 0.00 |
| 8 | 07/03 | 17:00 | 87 | 54 | 33 | 30.04 | WNW | 2 | 0.00 |
| 9 | 07/03 | 16:00 | 87 | 54 | 33 | 30.06 | NNW | 3 | 0.00 |
| 10 | 07/03 | 15:00 | 87 | 54 | 33 | 30.08 | SW | 2 | 0.00 |
| 11 | 07/03 | 14:00 | 85 | 56 | 38 | 30.11 | WSW | 2 | 0.00 |
| 12 | 07/03 | 13:00 | 84 | 56 | 40 | 30.13 | W | 4 | 0.00 |
| 13 | 07/03 | 12:00 | 81 | 54 | 41 | 30.15 | S | 2 | 0.00 |
| 14 | 07/03 | 11:00 | 79 | 55 | 45 | 30.17 | NNE | 4 | 0.00 |
| 15 | 07/03 | 10:00 | 76 | 60 | 58 | 30.19 | SSW | 4 | 0.00 |
| 16 | 07/03 | 09:00 | 70 | 58 | 66 | 30.22 | W | 1 | 0.00 |
| 17 | 07/03 | 08:00 | 61 | 58 | 93 | 30.22 | S | 0 | 0.00 |
| 18 | 07/03 | 07:00 | 56 | 55 | 98 | 30.22 | ENE | 0 | 0.00 |
| 19 | 07/03 | 06:00 | 55 | 54 | 97 | 30.21 | NE | 0 | 0.00 |
| 20 | 07/03 | 05:00 | 55 | 53 | 96 | 30.20 | NE | 0 | 0.00 |
| 21 | 07/03 | 04:00 | 56 | 54 | 94 | 30.18 | SW | 0 | 0.00 |
| 22 | 07/03 | 03:00 | 57 | 54 | 93 | 30.18 | SW | 0 | 0.00 |
| 23 | 07/03 | 02:00 | 58 | 55 | 90 | 30.18 | WSW | 0 | 0.00 |
| 24 | 07/03 | 01:00 | 60 | 55 | 84 | 30.17 | WSW | 0 | 0.00 |